»·PEaware :: TPX638 KLAS-KPHX

TPX638 :: KLAS-KPHX

FLIGHT INFORMATION

Flight Status: Arrived
Operator: ATP Experience
More flights by this operator :: More flights under this callsign
Pilot: Dave P. (45)
Aircraft: BOEING 737-600
(B736)
More flights by this aircraft type
Origin: KLAS McCarran Intl
United States
Destination: KPHX Phoenix Sky Harbor Intl
United States
More flights between these airports :: More routes between these airports
Route: +COWBY8 COWBY TENTS BRUSR1
File this flight plan on PilotEdge
Remarks: PBN / A1B1C1D1S1S2 DOF / 181012 REG / N736PM EET / KZAB0020 OPR / TPX PER / C TALT / KCDC RMK / TCAS SIMBRIEF
Altitude:
(Current/Filed)
29,000ft
Speed:
(Current/Filed)
444kts
Departed: 11-Oct-18 06:31 PM
Arrived: 11-Oct-18 07:19 PM
Distance/Time
Traveled:
222nm/0:48
Distance/Time
To Go:
Arrived

Flight Plot

Page will automatically refresh every two minutes.

Flight plan parsing failed; only flown route is shown


Map Options




Map Legend


Flown Route
Filed Route
Departure Airport
Arrival Airport
Navaid (VOR, NDB)
Fix

Horizontal Profiles

Position Reports

Time Latitude Longitude Heading Altitude Ground
Speed
11-Oct-18 18:06 36.081138 -115.138062 320 2188ft 0kts
11-Oct-18 18:07 36.081138 -115.138062 320 2188ft 0kts
11-Oct-18 18:08 36.081138 -115.138062 320 2188ft 0kts
11-Oct-18 18:09 36.081138 -115.138062 320 2188ft 0kts
11-Oct-18 18:10 36.081138 -115.138062 320 2188ft 0kts
11-Oct-18 18:11 36.081138 -115.138062 320 2188ft 0kts
11-Oct-18 18:12 36.081138 -115.138062 320 2188ft 0kts
11-Oct-18 18:13 36.081138 -115.138062 320 2188ft 0kts
11-Oct-18 18:14 36.081138 -115.138062 320 2188ft 0kts
11-Oct-18 18:15 36.081138 -115.138062 320 2188ft 0kts
11-Oct-18 18:16 36.081138 -115.138062 320 2188ft 0kts
11-Oct-18 18:17 36.081138 -115.138062 320 2188ft 0kts
11-Oct-18 18:18 36.080943 -115.137860 319 2188ft 2kts
11-Oct-18 18:19 36.080599 -115.137503 319 2188ft 0kts
11-Oct-18 18:20 36.080599 -115.137503 319 2188ft 0kts
11-Oct-18 18:21 36.080599 -115.137503 319 2188ft 0kts
11-Oct-18 18:22 36.080600 -115.137504 319 2188ft 0kts
11-Oct-18 18:23 36.080601 -115.137505 319 2188ft 0kts
11-Oct-18 18:24 36.080646 -115.137569 299 2188ft 3kts
11-Oct-18 18:25 36.079352 -115.138965 227 2188ft 0kts
11-Oct-18 18:26 36.079174 -115.139203 227 2188ft 9kts
11-Oct-18 18:27 36.077513 -115.141829 255 2188ft 12kts
11-Oct-18 18:28 36.077717 -115.148378 273 2188ft 22kts
11-Oct-18 18:29 36.077942 -115.154765 269 2188ft 17kts
11-Oct-18 18:30 36.077934 -115.161460 269 2188ft 20kts
11-Oct-18 18:31 36.077961 -115.164364 271 2188ft 0kts
11-Oct-18 18:32 36.078335 -115.165147 22 2188ft 2kts
11-Oct-18 18:33 36.100164 -115.153612 22 2697ft 150kts
11-Oct-18 18:34 36.133884 -115.122173 77 4647ft 194kts
11-Oct-18 18:35 36.140384 -115.041153 84 6600ft 274kts
11-Oct-18 18:36 36.148474 -114.943285 83 10188ft 293kts
11-Oct-18 18:37 36.158188 -114.834680 84 12485ft 354kts
11-Oct-18 18:38 36.179734 -114.708705 84 15408ft 388kts
11-Oct-18 18:39 36.131740 -114.596418 155 18403ft 391kts
11-Oct-18 18:40 36.037731 -114.522340 139 21266ft 420kts
11-Oct-18 18:41 35.993529 -114.383060 102 23649ft 459kts
11-Oct-18 18:42 35.971204 -114.224114 103 25757ft 480kts
11-Oct-18 18:43 35.946952 -114.058935 104 27578ft 499kts
11-Oct-18 18:44 35.925318 -113.916713 107 28907ft 508kts
11-Oct-18 18:45 35.872840 -113.727512 115 28970ft 497kts
11-Oct-18 18:46 35.833260 -113.593959 115 28976ft 498kts
11-Oct-18 18:47 35.778160 -113.406389 115 29009ft 498kts
11-Oct-18 18:48 35.738765 -113.272620 115 29030ft 499kts
11-Oct-18 18:49 35.683168 -113.085526 116 29051ft 500kts
11-Oct-18 18:50 35.643039 -112.951172 116 29068ft 502kts
11-Oct-18 18:51 35.586878 -112.763693 116 29086ft 501kts
11-Oct-18 18:52 35.538222 -112.602950 116 29091ft 502kts
11-Oct-18 18:53 35.487045 -112.477548 142 29091ft 476kts
11-Oct-18 18:54 35.354521 -112.423213 182 29089ft 426kts
11-Oct-18 18:55 35.255342 -112.405346 179 29089ft 437kts
11-Oct-18 18:56 35.136231 -112.380929 178 27959ft 426kts
11-Oct-18 18:57 35.019744 -112.355554 177 26726ft 429kts
11-Oct-18 18:58 34.903687 -112.330462 176 25178ft 420kts
11-Oct-18 18:59 34.790268 -112.305673 175 23619ft 409kts
11-Oct-18 19:00 34.678211 -112.280975 175 22138ft 404kts
11-Oct-18 19:01 34.568827 -112.257000 175 20671ft 395kts
11-Oct-18 19:02 34.463447 -112.233985 175 19249ft 366kts
11-Oct-18 19:03 34.366905 -112.209758 173 17904ft 347kts
11-Oct-18 19:04 34.273297 -112.185371 172 16585ft 340kts
11-Oct-18 19:05 34.167429 -112.158023 172 15013ft 328kts
11-Oct-18 19:06 34.095116 -112.139394 172 14014ft 304kts
11-Oct-18 19:07 34.016874 -112.109399 164 12804ft 288kts
11-Oct-18 19:08 33.940429 -112.077825 164 11840ft 289kts
11-Oct-18 19:09 33.865064 -112.047191 163 10729ft 284kts
11-Oct-18 19:10 33.791648 -112.017416 163 9606ft 271kts
11-Oct-18 19:11 33.720425 -111.988589 162 8689ft 270kts
11-Oct-18 19:12 33.652153 -111.953654 150 7865ft 260kts
11-Oct-18 19:13 33.581910 -111.902398 149 6180ft 249kts
11-Oct-18 19:14 33.538994 -111.859638 140 5406ft 227kts
11-Oct-18 19:15 33.495486 -111.813212 140 4662ft 189kts
11-Oct-18 19:16 33.455541 -111.795080 216 3683ft 157kts
11-Oct-18 19:17 33.440920 -111.843564 264 2952ft 167kts
11-Oct-18 19:18 33.440736 -111.899708 267 2648ft 161kts
11-Oct-18 19:19 33.440782 -111.948279 268 1861ft 131kts
11-Oct-18 19:20 33.440830 -111.990218 270 1225ft 123kts
11-Oct-18 19:21 33.440243 -112.010967 196 1143ft 14kts
11-Oct-18 19:22 33.439003 -112.010422 87 1143ft 12kts
11-Oct-18 19:23 33.439004 -112.004713 90 1143ft 17kts
11-Oct-18 19:24 33.436821 -112.003040 180 1143ft 8kts
11-Oct-18 19:25 33.436507 -112.002336 89 1143ft 0kts
11-Oct-18 19:26 33.436507 -112.002336 89 1143ft 0kts
11-Oct-18 19:27 33.436507 -112.002336 89 1143ft 0kts

Navigation Log

Ident Type
Flight plan parsing failed, navigation log unavailable